sensor_id;sensor_type;location;lat;lon;timestamp;P1;durP1;ratioP1;P2;durP2;ratioP2
48945;SDS011;34999;50.940;3.998;2023-07-13T00:01:13;9.80;;;2.50;;
48945;SDS011;34999;50.940;3.998;2023-07-13T00:03:42;8.57;;;2.60;;
48945;SDS011;34999;50.940;3.998;2023-07-13T00:06:11;9.57;;;2.77;;
48945;SDS011;34999;50.940;3.998;2023-07-13T00:08:40;5.27;;;2.30;;
48945;SDS011;34999;50.940;3.998;2023-07-13T00:11:08;9.67;;;2.60;;
48945;SDS011;34999;50.940;3.998;2023-07-13T00:13:37;12.97;;;2.50;;
48945;SDS011;34999;50.940;3.998;2023-07-13T00:16:07;5.47;;;2.27;;
48945;SDS011;34999;50.940;3.998;2023-07-13T00:18:37;7.20;;;2.53;;
48945;SDS011;34999;50.940;3.998;2023-07-13T00:21:05;8.20;;;2.70;;
48945;SDS011;34999;50.940;3.998;2023-07-13T00:23:34;6.83;;;2.60;;
48945;SDS011;34999;50.940;3.998;2023-07-13T00:26:05;4.90;;;2.30;;
48945;SDS011;34999;50.940;3.998;2023-07-13T00:28:35;9.87;;;2.90;;
48945;SDS011;34999;50.940;3.998;2023-07-13T00:31:04;8.73;;;2.90;;
48945;SDS011;34999;50.940;3.998;2023-07-13T00:33:35;6.60;;;2.17;;
48945;SDS011;34999;50.940;3.998;2023-07-13T00:36:03;7.27;;;2.70;;
48945;SDS011;34999;50.940;3.998;2023-07-13T00:38:32;10.20;;;2.63;;
48945;SDS011;34999;50.940;3.998;2023-07-13T00:41:00;11.57;;;2.53;;
48945;SDS011;34999;50.940;3.998;2023-07-13T00:43:30;6.10;;;2.40;;
48945;SDS011;34999;50.940;3.998;2023-07-13T00:48:57;11.07;;;3.37;;
48945;SDS011;34999;50.940;3.998;2023-07-13T00:51:30;7.50;;;2.47;;
48945;SDS011;34999;50.940;3.998;2023-07-13T00:54:03;7.03;;;2.63;;
48945;SDS011;34999;50.940;3.998;2023-07-13T00:56:34;9.03;;;3.00;;
48945;SDS011;34999;50.940;3.998;2023-07-13T00:59:03;10.37;;;3.00;;
48945;SDS011;34999;50.940;3.998;2023-07-13T01:01:35;7.50;;;2.90;;
48945;SDS011;34999;50.940;3.998;2023-07-13T01:04:04;11.17;;;2.87;;
48945;SDS011;34999;50.940;3.998;2023-07-13T01:06:35;9.00;;;2.53;;
48945;SDS011;34999;50.940;3.998;2023-07-13T01:09:04;11.07;;;3.03;;
48945;SDS011;34999;50.940;3.998;2023-07-13T01:11:33;8.77;;;3.07;;
48945;SDS011;34999;50.940;3.998;2023-07-13T01:14:02;8.43;;;3.23;;
48945;SDS011;34999;50.940;3.998;2023-07-13T01:16:32;7.17;;;2.67;;
48945;SDS011;34999;50.940;3.998;2023-07-13T01:19:03;10.83;;;2.70;;
48945;SDS011;34999;50.940;3.998;2023-07-13T01:21:40;11.23;;;2.90;;
48945;SDS011;34999;50.940;3.998;2023-07-13T01:24:09;10.60;;;2.70;;
48945;SDS011;34999;50.940;3.998;2023-07-13T01:26:38;4.37;;;2.70;;
48945;SDS011;34999;50.940;3.998;2023-07-13T01:29:06;10.07;;;3.40;;
48945;SDS011;34999;50.940;3.998;2023-07-13T01:31:34;13.23;;;3.53;;
48945;SDS011;34999;50.940;3.998;2023-07-13T01:34:03;10.63;;;3.03;;
48945;SDS011;34999;50.940;3.998;2023-07-13T01:36:31;13.03;;;3.20;;
48945;SDS011;34999;50.940;3.998;2023-07-13T01:39:01;6.60;;;3.17;;
48945;SDS011;34999;50.940;3.998;2023-07-13T01:41:29;7.80;;;3.83;;
48945;SDS011;34999;50.940;3.998;2023-07-13T01:43:58;8.17;;;3.10;;
48945;SDS011;34999;50.940;3.998;2023-07-13T01:46:26;7.27;;;3.20;;
48945;SDS011;34999;50.940;3.998;2023-07-13T01:48:55;13.63;;;3.63;;
48945;SDS011;34999;50.940;3.998;2023-07-13T01:51:23;9.13;;;3.17;;
48945;SDS011;34999;50.940;3.998;2023-07-13T01:53:52;13.07;;;3.43;;
48945;SDS011;34999;50.940;3.998;2023-07-13T01:56:21;14.90;;;3.37;;
48945;SDS011;34999;50.940;3.998;2023-07-13T01:58:50;9.73;;;2.87;;
48945;SDS011;34999;50.940;3.998;2023-07-13T02:01:19;13.30;;;3.60;;
48945;SDS011;34999;50.940;3.998;2023-07-13T02:03:48;9.70;;;3.00;;
48945;SDS011;34999;50.940;3.998;2023-07-13T02:06:16;15.33;;;3.50;;
48945;SDS011;34999;50.940;3.998;2023-07-13T02:08:44;11.60;;;3.37;;
48945;SDS011;34999;50.940;3.998;2023-07-13T02:11:13;10.33;;;3.37;;
48945;SDS011;34999;50.940;3.998;2023-07-13T02:13:43;15.30;;;3.77;;
48945;SDS011;34999;50.940;3.998;2023-07-13T02:16:11;18.87;;;4.03;;
48945;SDS011;34999;50.940;3.998;2023-07-13T02:18:40;8.20;;;3.30;;
48945;SDS011;34999;50.940;3.998;2023-07-13T02:21:08;12.27;;;3.40;;
48945;SDS011;34999;50.940;3.998;2023-07-13T02:23:37;11.60;;;3.27;;
48945;SDS011;34999;50.940;3.998;2023-07-13T02:26:05;15.83;;;3.97;;
48945;SDS011;34999;50.940;3.998;2023-07-13T02:28:33;11.60;;;3.50;;
48945;SDS011;34999;50.940;3.998;2023-07-13T02:31:07;12.53;;;3.60;;
48945;SDS011;34999;50.940;3.998;2023-07-13T02:33:36;15.33;;;3.60;;
48945;SDS011;34999;50.940;3.998;2023-07-13T02:36:04;9.57;;;3.20;;
48945;SDS011;34999;50.940;3.998;2023-07-13T02:38:34;11.90;;;3.50;;
48945;SDS011;34999;50.940;3.998;2023-07-13T02:41:02;8.97;;;3.17;;
48945;SDS011;34999;50.940;3.998;2023-07-13T02:43:31;13.60;;;3.40;;
48945;SDS011;34999;50.940;3.998;2023-07-13T02:45:59;11.73;;;3.37;;
48945;SDS011;34999;50.940;3.998;2023-07-13T02:48:36;12.63;;;3.20;;
48945;SDS011;34999;50.940;3.998;2023-07-13T02:51:06;12.80;;;3.20;;
48945;SDS011;34999;50.940;3.998;2023-07-13T02:53:35;13.50;;;3.90;;
48945;SDS011;34999;50.940;3.998;2023-07-13T02:56:03;12.53;;;3.57;;
48945;SDS011;34999;50.940;3.998;2023-07-13T02:58:32;11.23;;;3.37;;
48945;SDS011;34999;50.940;3.998;2023-07-13T03:01:05;8.63;;;3.37;;
48945;SDS011;34999;50.940;3.998;2023-07-13T03:03:35;9.60;;;3.10;;
48945;SDS011;34999;50.940;3.998;2023-07-13T03:06:04;12.47;;;3.10;;
48945;SDS011;34999;50.940;3.998;2023-07-13T03:08:35;12.87;;;3.53;;
48945;SDS011;34999;50.940;3.998;2023-07-13T03:11:04;8.83;;;3.17;;
48945;SDS011;34999;50.940;3.998;2023-07-13T03:13:35;13.50;;;3.63;;
48945;SDS011;34999;50.940;3.998;2023-07-13T03:16:04;9.20;;;3.30;;
48945;SDS011;34999;50.940;3.998;2023-07-13T03:18:34;7.47;;;3.00;;
48945;SDS011;34999;50.940;3.998;2023-07-13T03:21:04;10.97;;;3.27;;
48945;SDS011;34999;50.940;3.998;2023-07-13T03:23:33;11.10;;;3.47;;
48945;SDS011;34999;50.940;3.998;2023-07-13T03:26:01;9.43;;;3.50;;
48945;SDS011;34999;50.940;3.998;2023-07-13T03:28:30;10.53;;;3.80;;
48945;SDS011;34999;50.940;3.998;2023-07-13T03:30:59;9.63;;;3.30;;
48945;SDS011;34999;50.940;3.998;2023-07-13T03:33:29;6.90;;;3.73;;
48945;SDS011;34999;50.940;3.998;2023-07-13T03:35:59;10.27;;;3.73;;
48945;SDS011;34999;50.940;3.998;2023-07-13T03:38:27;10.67;;;3.33;;
48945;SDS011;34999;50.940;3.998;2023-07-13T03:40:56;7.40;;;3.63;;
48945;SDS011;34999;50.940;3.998;2023-07-13T03:43:24;12.27;;;3.50;;
48945;SDS011;34999;50.940;3.998;2023-07-13T03:45:52;13.33;;;3.83;;
48945;SDS011;34999;50.940;3.998;2023-07-13T03:48:21;9.10;;;3.40;;
48945;SDS011;34999;50.940;3.998;2023-07-13T03:50:49;14.13;;;4.00;;
48945;SDS011;34999;50.940;3.998;2023-07-13T03:53:18;10.63;;;3.50;;
48945;SDS011;34999;50.940;3.998;2023-07-13T03:55:47;17.37;;;3.70;;
48945;SDS011;34999;50.940;3.998;2023-07-13T03:58:29;13.33;;;3.77;;
48945;SDS011;34999;50.940;3.998;2023-07-13T04:00:59;12.87;;;4.00;;
48945;SDS011;34999;50.940;3.998;2023-07-13T04:03:29;12.67;;;3.83;;
48945;SDS011;34999;50.940;3.998;2023-07-13T04:05:59;11.97;;;4.03;;
48945;SDS011;34999;50.940;3.998;2023-07-13T04:08:30;14.83;;;3.90;;
48945;SDS011;34999;50.940;3.998;2023-07-13T04:11:00;13.00;;;3.70;;
48945;SDS011;34999;50.940;3.998;2023-07-13T04:13:30;14.23;;;3.83;;
48945;SDS011;34999;50.940;3.998;2023-07-13T04:15:58;13.03;;;3.67;;
48945;SDS011;34999;50.940;3.998;2023-07-13T04:18:26;8.63;;;3.57;;
48945;SDS011;34999;50.940;3.998;2023-07-13T04:20:54;11.50;;;3.53;;
48945;SDS011;34999;50.940;3.998;2023-07-13T04:23:23;8.83;;;3.33;;
48945;SDS011;34999;50.940;3.998;2023-07-13T04:25:53;11.33;;;3.80;;
48945;SDS011;34999;50.940;3.998;2023-07-13T04:28:22;10.27;;;4.00;;
48945;SDS011;34999;50.940;3.998;2023-07-13T04:30:51;13.47;;;4.10;;
48945;SDS011;34999;50.940;3.998;2023-07-13T04:33:20;11.93;;;3.87;;
48945;SDS011;34999;50.940;3.998;2023-07-13T04:35:49;9.70;;;3.87;;
48945;SDS011;34999;50.940;3.998;2023-07-13T04:38:21;18.40;;;4.20;;
48945;SDS011;34999;50.940;3.998;2023-07-13T04:40:51;9.77;;;3.97;;
48945;SDS011;34999;50.940;3.998;2023-07-13T04:43:22;10.87;;;3.63;;
48945;SDS011;34999;50.940;3.998;2023-07-13T04:45:50;12.80;;;3.57;;
48945;SDS011;34999;50.940;3.998;2023-07-13T04:48:19;13.20;;;3.50;;
48945;SDS011;34999;50.940;3.998;2023-07-13T04:50:48;15.97;;;4.27;;
48945;SDS011;34999;50.940;3.998;2023-07-13T04:53:23;10.30;;;3.50;;
48945;SDS011;34999;50.940;3.998;2023-07-13T04:55:53;12.77;;;4.17;;
48945;SDS011;34999;50.940;3.998;2023-07-13T04:58:22;15.07;;;4.23;;
48945;SDS011;34999;50.940;3.998;2023-07-13T05:00:51;12.40;;;3.70;;
48945;SDS011;34999;50.940;3.998;2023-07-13T05:03:20;12.33;;;4.07;;
48945;SDS011;34999;50.940;3.998;2023-07-13T05:05:55;13.27;;;4.40;;
48945;SDS011;34999;50.940;3.998;2023-07-13T05:08:24;10.93;;;3.80;;
48945;SDS011;34999;50.940;3.998;2023-07-13T05:10:54;15.17;;;3.70;;
48945;SDS011;34999;50.940;3.998;2023-07-13T05:13:23;14.63;;;3.93;;
48945;SDS011;34999;50.940;3.998;2023-07-13T05:15:56;17.57;;;3.97;;
48945;SDS011;34999;50.940;3.998;2023-07-13T05:18:26;12.03;;;3.90;;
48945;SDS011;34999;50.940;3.998;2023-07-13T05:20:57;8.77;;;3.83;;
48945;SDS011;34999;50.940;3.998;2023-07-13T05:23:26;10.67;;;3.93;;
48945;SDS011;34999;50.940;3.998;2023-07-13T05:25:56;8.87;;;3.60;;
48945;SDS011;34999;50.940;3.998;2023-07-13T05:28:25;10.70;;;3.93;;
48945;SDS011;34999;50.940;3.998;2023-07-13T05:30:55;16.33;;;4.00;;
48945;SDS011;34999;50.940;3.998;2023-07-13T05:33:24;9.70;;;3.67;;
48945;SDS011;34999;50.940;3.998;2023-07-13T05:35:53;11.80;;;3.97;;
48945;SDS011;34999;50.940;3.998;2023-07-13T05:38:21;16.40;;;4.33;;
48945;SDS011;34999;50.940;3.998;2023-07-13T05:40:50;16.67;;;3.80;;
48945;SDS011;34999;50.940;3.998;2023-07-13T05:43:19;16.10;;;4.27;;
48945;SDS011;34999;50.940;3.998;2023-07-13T05:45:48;5.70;;;3.47;;
48945;SDS011;34999;50.940;3.998;2023-07-13T05:48:17;10.80;;;3.57;;
48945;SDS011;34999;50.940;3.998;2023-07-13T05:50:45;11.40;;;3.80;;
48945;SDS011;34999;50.940;3.998;2023-07-13T05:53:14;6.23;;;3.87;;
48945;SDS011;34999;50.940;3.998;2023-07-13T05:55:43;15.03;;;3.70;;
48945;SDS011;34999;50.940;3.998;2023-07-13T05:58:14;12.37;;;4.07;;
48945;SDS011;34999;50.940;3.998;2023-07-13T06:00:43;15.57;;;4.10;;
48945;SDS011;34999;50.940;3.998;2023-07-13T06:03:12;18.37;;;3.80;;
48945;SDS011;34999;50.940;3.998;2023-07-13T06:05:41;13.33;;;4.43;;
48945;SDS011;34999;50.940;3.998;2023-07-13T06:08:10;14.33;;;3.80;;
48945;SDS011;34999;50.940;3.998;2023-07-13T06:10:38;12.17;;;4.07;;
48945;SDS011;34999;50.940;3.998;2023-07-13T06:13:07;13.63;;;3.43;;
48945;SDS011;34999;50.940;3.998;2023-07-13T06:15:35;17.43;;;4.10;;
48945;SDS011;34999;50.940;3.998;2023-07-13T06:18:05;9.33;;;4.33;;
48945;SDS011;34999;50.940;3.998;2023-07-13T06:20:33;12.93;;;3.60;;
48945;SDS011;34999;50.940;3.998;2023-07-13T06:23:02;9.47;;;3.90;;
48945;SDS011;34999;50.940;3.998;2023-07-13T06:25:30;10.63;;;3.80;;
48945;SDS011;34999;50.940;3.998;2023-07-13T06:27:58;13.77;;;4.03;;
48945;SDS011;34999;50.940;3.998;2023-07-13T06:30:27;13.67;;;4.10;;
48945;SDS011;34999;50.940;3.998;2023-07-13T06:32:55;12.83;;;4.20;;
48945;SDS011;34999;50.940;3.998;2023-07-13T06:35:25;16.67;;;4.10;;
48945;SDS011;34999;50.940;3.998;2023-07-13T06:37:53;16.63;;;3.90;;
48945;SDS011;34999;50.940;3.998;2023-07-13T06:40:21;9.33;;;3.80;;
48945;SDS011;34999;50.940;3.998;2023-07-13T06:42:50;12.97;;;3.93;;
48945;SDS011;34999;50.940;3.998;2023-07-13T06:45:18;10.27;;;3.80;;
48945;SDS011;34999;50.940;3.998;2023-07-13T06:47:46;10.83;;;3.80;;
48945;SDS011;34999;50.940;3.998;2023-07-13T06:50:16;14.90;;;4.00;;
48945;SDS011;34999;50.940;3.998;2023-07-13T06:52:45;9.90;;;3.20;;
48945;SDS011;34999;50.940;3.998;2023-07-13T06:55:14;8.60;;;3.37;;
48945;SDS011;34999;50.940;3.998;2023-07-13T06:57:42;16.13;;;4.00;;
48945;SDS011;34999;50.940;3.998;2023-07-13T07:00:11;10.80;;;3.13;;
48945;SDS011;34999;50.940;3.998;2023-07-13T07:02:40;15.27;;;3.70;;
48945;SDS011;34999;50.940;3.998;2023-07-13T07:05:08;11.13;;;3.73;;
48945;SDS011;34999;50.940;3.998;2023-07-13T07:07:37;10.10;;;3.30;;
48945;SDS011;34999;50.940;3.998;2023-07-13T07:10:07;9.17;;;2.77;;
48945;SDS011;34999;50.940;3.998;2023-07-13T07:12:36;15.17;;;3.37;;
48945;SDS011;34999;50.940;3.998;2023-07-13T07:15:05;10.77;;;3.40;;
48945;SDS011;34999;50.940;3.998;2023-07-13T07:17:33;12.93;;;3.73;;
48945;SDS011;34999;50.940;3.998;2023-07-13T07:20:02;8.40;;;3.53;;
48945;SDS011;34999;50.940;3.998;2023-07-13T07:22:31;11.07;;;3.77;;
48945;SDS011;34999;50.940;3.998;2023-07-13T07:25:00;15.67;;;3.53;;
48945;SDS011;34999;50.940;3.998;2023-07-13T07:27:30;10.53;;;3.03;;
48945;SDS011;34999;50.940;3.998;2023-07-13T07:30:01;10.37;;;3.10;;
48945;SDS011;34999;50.940;3.998;2023-07-13T07:32:33;9.97;;;3.03;;
48945;SDS011;34999;50.940;3.998;2023-07-13T07:35:05;9.33;;;3.13;;
48945;SDS011;34999;50.940;3.998;2023-07-13T07:37:34;8.77;;;3.23;;
48945;SDS011;34999;50.940;3.998;2023-07-13T07:40:06;9.17;;;2.80;;
48945;SDS011;34999;50.940;3.998;2023-07-13T07:42:39;10.33;;;3.07;;
48945;SDS011;34999;50.940;3.998;2023-07-13T07:45:08;9.63;;;3.47;;
48945;SDS011;34999;50.940;3.998;2023-07-13T07:47:38;9.37;;;3.13;;
48945;SDS011;34999;50.940;3.998;2023-07-13T07:50:06;9.30;;;2.63;;
48945;SDS011;34999;50.940;3.998;2023-07-13T07:52:35;4.77;;;2.17;;
48945;SDS011;34999;50.940;3.998;2023-07-13T07:55:05;7.63;;;2.67;;
48945;SDS011;34999;50.940;3.998;2023-07-13T07:57:37;8.03;;;2.67;;
48945;SDS011;34999;50.940;3.998;2023-07-13T08:00:10;6.60;;;2.67;;
48945;SDS011;34999;50.940;3.998;2023-07-13T08:02:43;8.33;;;3.00;;
48945;SDS011;34999;50.940;3.998;2023-07-13T08:05:14;7.40;;;2.50;;
48945;SDS011;34999;50.940;3.998;2023-07-13T08:07:46;6.80;;;3.27;;
48945;SDS011;34999;50.940;3.998;2023-07-13T08:10:16;9.17;;;2.90;;
48945;SDS011;34999;50.940;3.998;2023-07-13T08:12:44;10.67;;;3.07;;
48945;SDS011;34999;50.940;3.998;2023-07-13T08:15:34;4.53;;;2.37;;
48945;SDS011;34999;50.940;3.998;2023-07-13T08:18:04;6.70;;;2.57;;
48945;SDS011;34999;50.940;3.998;2023-07-13T08:20:32;7.70;;;2.73;;
48945;SDS011;34999;50.940;3.998;2023-07-13T08:23:03;8.00;;;2.60;;
48945;SDS011;34999;50.940;3.998;2023-07-13T08:25:32;11.23;;;2.90;;
48945;SDS011;34999;50.940;3.998;2023-07-13T08:28:01;10.17;;;2.50;;
48945;SDS011;34999;50.940;3.998;2023-07-13T08:30:31;9.87;;;3.07;;
48945;SDS011;34999;50.940;3.998;2023-07-13T08:33:00;9.37;;;2.83;;
48945;SDS011;34999;50.940;3.998;2023-07-13T08:35:29;5.47;;;2.27;;
48945;SDS011;34999;50.940;3.998;2023-07-13T08:37:57;7.53;;;2.70;;
48945;SDS011;34999;50.940;3.998;2023-07-13T08:40:27;6.70;;;2.43;;
48945;SDS011;34999;50.940;3.998;2023-07-13T08:42:57;4.50;;;2.38;;
48945;SDS011;34999;50.940;3.998;2023-07-13T08:45:28;7.38;;;2.63;;
48945;SDS011;34999;50.940;3.998;2023-07-13T08:48:03;7.05;;;2.22;;
48945;SDS011;34999;50.940;3.998;2023-07-13T08:50:39;7.93;;;2.63;;
48945;SDS011;34999;50.940;3.998;2023-07-13T08:53:29;5.13;;;2.40;;
48945;SDS011;34999;50.940;3.998;2023-07-13T08:56:01;5.60;;;2.65;;
48945;SDS011;34999;50.940;3.998;2023-07-13T08:58:31;5.28;;;2.20;;
48945;SDS011;34999;50.940;3.998;2023-07-13T09:01:03;5.45;;;2.20;;
48945;SDS011;34999;50.940;3.998;2023-07-13T09:03:46;5.85;;;2.17;;
48945;SDS011;34999;50.940;3.998;2023-07-13T09:06:20;5.68;;;2.13;;
48945;SDS011;34999;50.940;3.998;2023-07-13T09:08:52;4.40;;;2.45;;
48945;SDS011;34999;50.940;3.998;2023-07-13T09:11:29;4.10;;;1.83;;
48945;SDS011;34999;50.940;3.998;2023-07-13T09:14:15;3.72;;;2.10;;
48945;SDS011;34999;50.940;3.998;2023-07-13T09:16:59;5.50;;;2.05;;
48945;SDS011;34999;50.940;3.998;2023-07-13T09:19:32;5.50;;;2.25;;
48945;SDS011;34999;50.940;3.998;2023-07-13T09:22:02;5.80;;;2.38;;
48945;SDS011;34999;50.940;3.998;2023-07-13T09:24:36;7.05;;;2.15;;
48945;SDS011;34999;50.940;3.998;2023-07-13T09:27:09;4.90;;;2.42;;
48945;SDS011;34999;50.940;3.998;2023-07-13T09:29:45;7.22;;;2.25;;
48945;SDS011;34999;50.940;3.998;2023-07-13T09:32:18;6.32;;;2.22;;
48945;SDS011;34999;50.940;3.998;2023-07-13T09:34:52;4.50;;;2.10;;
48945;SDS011;34999;50.940;3.998;2023-07-13T09:37:21;4.07;;;2.30;;
48945;SDS011;34999;50.940;3.998;2023-07-13T09:39:55;4.32;;;2.08;;
48945;SDS011;34999;50.940;3.998;2023-07-13T09:42:25;5.22;;;2.17;;
48945;SDS011;34999;50.940;3.998;2023-07-13T09:44:55;6.68;;;2.30;;
48945;SDS011;34999;50.940;3.998;2023-07-13T09:47:25;5.05;;;2.03;;
48945;SDS011;34999;50.940;3.998;2023-07-13T09:49:59;4.97;;;2.05;;
48945;SDS011;34999;50.940;3.998;2023-07-13T09:52:38;4.45;;;2.15;;
48945;SDS011;34999;50.940;3.998;2023-07-13T09:55:22;8.73;;;2.25;;
48945;SDS011;34999;50.940;3.998;2023-07-13T09:57:52;5.03;;;2.00;;
48945;SDS011;34999;50.940;3.998;2023-07-13T10:00:22;3.35;;;1.85;;
48945;SDS011;34999;50.940;3.998;2023-07-13T10:02:59;2.97;;;1.90;;
48945;SDS011;34999;50.940;3.998;2023-07-13T10:05:38;7.03;;;1.83;;
48945;SDS011;34999;50.940;3.998;2023-07-13T10:08:18;5.50;;;2.20;;
48945;SDS011;34999;50.940;3.998;2023-07-13T10:10:57;2.42;;;2.00;;
48945;SDS011;34999;50.940;3.998;2023-07-13T10:13:28;5.40;;;2.08;;
48945;SDS011;34999;50.940;3.998;2023-07-13T10:15:59;6.40;;;1.90;;
48945;SDS011;34999;50.940;3.998;2023-07-13T10:18:28;4.63;;;2.22;;
48945;SDS011;34999;50.940;3.998;2023-07-13T10:21:08;4.10;;;1.92;;
48945;SDS011;34999;50.940;3.998;2023-07-13T10:23:43;3.15;;;1.77;;
48945;SDS011;34999;50.940;3.998;2023-07-13T10:26:16;3.22;;;1.88;;
48945;SDS011;34999;50.940;3.998;2023-07-13T10:28:50;4.32;;;1.90;;
48945;SDS011;34999;50.940;3.998;2023-07-13T10:31:22;2.35;;;1.70;;
48945;SDS011;34999;50.940;3.998;2023-07-13T10:33:51;2.83;;;1.73;;
48945;SDS011;34999;50.940;3.998;2023-07-13T10:36:23;7.82;;;1.90;;
48945;SDS011;34999;50.940;3.998;2023-07-13T10:38:59;3.70;;;1.67;;
48945;SDS011;34999;50.940;3.998;2023-07-13T10:41:30;1.60;;;1.50;;
48945;SDS011;34999;50.940;3.998;2023-07-13T10:44:03;5.70;;;1.70;;
48945;SDS011;34999;50.940;3.998;2023-07-13T10:46:37;3.22;;;1.67;;
48945;SDS011;34999;50.940;3.998;2023-07-13T10:49:06;3.17;;;1.38;;
48945;SDS011;34999;50.940;3.998;2023-07-13T10:51:38;4.85;;;1.73;;
48945;SDS011;34999;50.940;3.998;2023-07-13T10:54:11;2.85;;;1.83;;
48945;SDS011;34999;50.940;3.998;2023-07-13T10:56:48;2.20;;;1.85;;
48945;SDS011;34999;50.940;3.998;2023-07-13T10:59:20;4.15;;;1.83;;
48945;SDS011;34999;50.940;3.998;2023-07-13T11:01:55;2.90;;;1.85;;
48945;SDS011;34999;50.940;3.998;2023-07-13T11:04:27;3.97;;;1.73;;
48945;SDS011;34999;50.940;3.998;2023-07-13T11:07:16;3.22;;;1.70;;
48945;SDS011;34999;50.940;3.998;2023-07-13T11:09:49;5.80;;;1.92;;
48945;SDS011;34999;50.940;3.998;2023-07-13T11:12:29;2.60;;;1.65;;
48945;SDS011;34999;50.940;3.998;2023-07-13T11:15:28;2.55;;;1.50;;
48945;SDS011;34999;50.940;3.998;2023-07-13T11:18:02;2.22;;;1.55;;
48945;SDS011;34999;50.940;3.998;2023-07-13T11:20:36;3.88;;;1.92;;
48945;SDS011;34999;50.940;3.998;2023-07-13T11:23:21;4.25;;;1.67;;
48945;SDS011;34999;50.940;3.998;2023-07-13T11:25:57;4.73;;;2.10;;
48945;SDS011;34999;50.940;3.998;2023-07-13T11:28:29;3.57;;;1.80;;
48945;SDS011;34999;50.940;3.998;2023-07-13T11:31:01;2.60;;;1.50;;
48945;SDS011;34999;50.940;3.998;2023-07-13T11:33:46;22.70;;;2.47;;
48945;SDS011;34999;50.940;3.998;2023-07-13T11:36:29;7.37;;;2.20;;
48945;SDS011;34999;50.940;3.998;2023-07-13T11:39:05;6.03;;;2.10;;
48945;SDS011;34999;50.940;3.998;2023-07-13T11:41:45;3.17;;;2.00;;
48945;SDS011;34999;50.940;3.998;2023-07-13T11:44:19;3.13;;;1.90;;
48945;SDS011;34999;50.940;3.998;2023-07-13T11:46:50;2.13;;;1.93;;
48945;SDS011;34999;50.940;3.998;2023-07-13T11:49:22;8.53;;;2.20;;
48945;SDS011;34999;50.940;3.998;2023-07-13T11:51:53;2.90;;;2.13;;
48945;SDS011;34999;50.940;3.998;2023-07-13T11:54:25;4.17;;;2.17;;
48945;SDS011;34999;50.940;3.998;2023-07-13T11:56:57;2.20;;;2.00;;
48945;SDS011;34999;50.940;3.998;2023-07-13T11:59:29;4.63;;;2.07;;
48945;SDS011;34999;50.940;3.998;2023-07-13T12:01:59;2.33;;;1.97;;
48945;SDS011;34999;50.940;3.998;2023-07-13T12:04:31;4.73;;;2.37;;
48945;SDS011;34999;50.940;3.998;2023-07-13T12:07:05;3.67;;;2.20;;
48945;SDS011;34999;50.940;3.998;2023-07-13T12:09:37;3.70;;;1.83;;
48945;SDS011;34999;50.940;3.998;2023-07-13T12:12:10;2.10;;;1.83;;
48945;SDS011;34999;50.940;3.998;2023-07-13T12:14:40;1.97;;;1.87;;
48945;SDS011;34999;50.940;3.998;2023-07-13T12:17:09;2.60;;;2.10;;
48945;SDS011;34999;50.940;3.998;2023-07-13T12:19:42;1.97;;;1.77;;
48945;SDS011;34999;50.940;3.998;2023-07-13T12:22:11;2.10;;;1.70;;
48945;SDS011;34999;50.940;3.998;2023-07-13T12:24:43;2.20;;;1.77;;
48945;SDS011;34999;50.940;3.998;2023-07-13T12:27:19;3.70;;;2.00;;
48945;SDS011;34999;50.940;3.998;2023-07-13T12:29:51;2.60;;;2.17;;
48945;SDS011;34999;50.940;3.998;2023-07-13T12:32:25;6.83;;;2.03;;
48945;SDS011;34999;50.940;3.998;2023-07-13T12:34:57;5.03;;;2.20;;
48945;SDS011;34999;50.940;3.998;2023-07-13T12:37:33;2.50;;;2.17;;
48945;SDS011;34999;50.940;3.998;2023-07-13T12:40:04;2.33;;;1.90;;
48945;SDS011;34999;50.940;3.998;2023-07-13T12:42:36;3.43;;;2.00;;
48945;SDS011;34999;50.940;3.998;2023-07-13T12:45:12;3.20;;;1.87;;
48945;SDS011;34999;50.940;3.998;2023-07-13T12:47:48;3.27;;;1.80;;
48945;SDS011;34999;50.940;3.998;2023-07-13T12:50:18;6.50;;;2.20;;
48945;SDS011;34999;50.940;3.998;2023-07-13T12:52:50;5.30;;;2.10;;
48945;SDS011;34999;50.940;3.998;2023-07-13T12:55:21;2.20;;;1.63;;
48945;SDS011;34999;50.940;3.998;2023-07-13T12:57:51;1.90;;;1.80;;
48945;SDS011;34999;50.940;3.998;2023-07-13T13:00:23;5.27;;;2.07;;
48945;SDS011;34999;50.940;3.998;2023-07-13T13:02:55;1.90;;;1.80;;
48945;SDS011;34999;50.940;3.998;2023-07-13T13:05:47;3.30;;;2.00;;
48945;SDS011;34999;50.940;3.998;2023-07-13T13:08:15;3.17;;;2.20;;
48945;SDS011;34999;50.940;3.998;2023-07-13T13:10:45;3.10;;;1.90;;
48945;SDS011;34999;50.940;3.998;2023-07-13T13:13:13;3.37;;;1.80;;
48945;SDS011;34999;50.940;3.998;2023-07-13T13:15:42;5.50;;;2.27;;
48945;SDS011;34999;50.940;3.998;2023-07-13T13:18:14;3.87;;;1.90;;
48945;SDS011;34999;50.940;3.998;2023-07-13T13:20:45;5.53;;;2.13;;
48945;SDS011;34999;50.940;3.998;2023-07-13T13:23:15;3.33;;;1.87;;
48945;SDS011;34999;50.940;3.998;2023-07-13T13:25:47;3.90;;;2.00;;
48945;SDS011;34999;50.940;3.998;2023-07-13T13:28:18;5.60;;;2.23;;
48945;SDS011;34999;50.940;3.998;2023-07-13T13:30:48;6.07;;;2.10;;
48945;SDS011;34999;50.940;3.998;2023-07-13T13:33:18;2.63;;;2.13;;
48945;SDS011;34999;50.940;3.998;2023-07-13T13:35:48;3.70;;;2.20;;
48945;SDS011;34999;50.940;3.998;2023-07-13T13:38:17;5.57;;;2.20;;
48945;SDS011;34999;50.940;3.998;2023-07-13T13:40:51;3.50;;;2.00;;
48945;SDS011;34999;50.940;3.998;2023-07-13T13:43:21;4.17;;;2.00;;
48945;SDS011;34999;50.940;3.998;2023-07-13T13:45:53;2.90;;;1.90;;
48945;SDS011;34999;50.940;3.998;2023-07-13T13:48:26;2.80;;;1.90;;
48945;SDS011;34999;50.940;3.998;2023-07-13T13:50:59;4.23;;;2.00;;
48945;SDS011;34999;50.940;3.998;2023-07-13T13:53:28;3.37;;;2.07;;
48945;SDS011;34999;50.940;3.998;2023-07-13T13:55:58;2.17;;;2.00;;
48945;SDS011;34999;50.940;3.998;2023-07-13T13:58:28;3.57;;;2.07;;
48945;SDS011;34999;50.940;3.998;2023-07-13T14:00:57;2.40;;;2.10;;
48945;SDS011;34999;50.940;3.998;2023-07-13T14:03:26;2.47;;;2.07;;
48945;SDS011;34999;50.940;3.998;2023-07-13T14:05:55;6.50;;;2.13;;
48945;SDS011;34999;50.940;3.998;2023-07-13T14:08:24;4.30;;;2.03;;
48945;SDS011;34999;50.940;3.998;2023-07-13T14:10:53;1.90;;;1.80;;
48945;SDS011;34999;50.940;3.998;2023-07-13T14:13:26;2.63;;;2.03;;
48945;SDS011;34999;50.940;3.998;2023-07-13T14:15:59;3.17;;;1.80;;
48945;SDS011;34999;50.940;3.998;2023-07-13T14:18:27;2.00;;;1.90;;
48945;SDS011;34999;50.940;3.998;2023-07-13T14:20:56;2.00;;;1.67;;
48945;SDS011;34999;50.940;3.998;2023-07-13T14:23:24;2.27;;;1.60;;
48945;SDS011;34999;50.940;3.998;2023-07-13T14:25:53;1.70;;;1.70;;
48945;SDS011;34999;50.940;3.998;2023-07-13T14:28:23;1.80;;;1.70;;
48945;SDS011;34999;50.940;3.998;2023-07-13T14:30:54;2.80;;;1.67;;
48945;SDS011;34999;50.940;3.998;2023-07-13T14:33:22;1.90;;;1.80;;
48945;SDS011;34999;50.940;3.998;2023-07-13T14:35:51;2.80;;;1.90;;
48945;SDS011;34999;50.940;3.998;2023-07-13T14:38:19;1.50;;;1.50;;
48945;SDS011;34999;50.940;3.998;2023-07-13T14:40:48;4.87;;;1.57;;
48945;SDS011;34999;50.940;3.998;2023-07-13T14:43:16;1.73;;;1.70;;
48945;SDS011;34999;50.940;3.998;2023-07-13T14:45:47;2.50;;;1.80;;
48945;SDS011;34999;50.940;3.998;2023-07-13T14:48:20;1.60;;;1.50;;
48945;SDS011;34999;50.940;3.998;2023-07-13T14:50:53;1.70;;;1.60;;
48945;SDS011;34999;50.940;3.998;2023-07-13T14:53:24;2.07;;;1.70;;
48945;SDS011;34999;50.940;3.998;2023-07-13T14:55:54;3.63;;;1.57;;
48945;SDS011;34999;50.940;3.998;2023-07-13T14:58:22;3.83;;;1.87;;
48945;SDS011;34999;50.940;3.998;2023-07-13T15:00:51;3.43;;;1.90;;
48945;SDS011;34999;50.940;3.998;2023-07-13T15:03:23;2.93;;;1.70;;
48945;SDS011;34999;50.940;3.998;2023-07-13T15:05:53;2.20;;;1.80;;
48945;SDS011;34999;50.940;3.998;2023-07-13T15:08:21;2.97;;;1.90;;